sensor_id;sensor_type;location;lat;lon;timestamp;pressure;altitude;pressure_sealevel;temperature;humidity
37634;BME280;32048;49.902;22.508;2023-01-05T00:01:50;98285.84;;;5.92;100.00
37634;BME280;32048;49.902;22.508;2023-01-05T00:04:17;98299.75;;;5.94;100.00
37634;BME280;32048;49.902;22.508;2023-01-05T00:06:44;98291.88;;;5.95;100.00
37634;BME280;32048;49.902;22.508;2023-01-05T00:09:15;98295.16;;;6.00;100.00
37634;BME280;32048;49.902;22.508;2023-01-05T00:11:43;98290.69;;;6.02;100.00
37634;BME280;32048;49.902;22.508;2023-01-05T00:14:30;98286.72;;;6.14;100.00
37634;BME280;32048;49.902;22.508;2023-01-05T00:17:21;98283.25;;;6.14;100.00
37634;BME280;32048;49.902;22.508;2023-01-05T00:20:14;98270.22;;;6.12;100.00
37634;BME280;32048;49.902;22.508;2023-01-05T00:23:00;98262.66;;;6.25;100.00
37634;BME280;32048;49.902;22.508;2023-01-05T00:25:30;98247.03;;;6.23;100.00
37634;BME280;32048;49.902;22.508;2023-01-05T00:27:57;98257.63;;;6.20;100.00
37634;BME280;32048;49.902;22.508;2023-01-05T00:30:27;98266.34;;;6.21;100.00
37634;BME280;32048;49.902;22.508;2023-01-05T00:32:55;98265.94;;;6.10;100.00
37634;BME280;32048;49.902;22.508;2023-01-05T00:35:22;98233.56;;;6.11;100.00
37634;BME280;32048;49.902;22.508;2023-01-05T00:37:50;98257.16;;;6.11;100.00
37634;BME280;32048;49.902;22.508;2023-01-05T00:40:19;98263.41;;;6.08;100.00
37634;BME280;32048;49.902;22.508;2023-01-05T00:42:47;98246.09;;;6.04;100.00
37634;BME280;32048;49.902;22.508;2023-01-05T00:45:16;98252.22;;;6.03;100.00
37634;BME280;32048;49.902;22.508;2023-01-05T00:47:44;98251.53;;;5.99;100.00
37634;BME280;32048;49.902;22.508;2023-01-05T00:50:14;98244.50;;;6.00;100.00
37634;BME280;32048;49.902;22.508;2023-01-05T00:52:43;98249.88;;;5.97;100.00
37634;BME280;32048;49.902;22.508;2023-01-05T00:55:10;98255.00;;;6.00;100.00
37634;BME280;32048;49.902;22.508;2023-01-05T00:57:38;98258.22;;;6.07;100.00
37634;BME280;32048;49.902;22.508;2023-01-05T01:00:07;98223.09;;;6.11;100.00
37634;BME280;32048;49.902;22.508;2023-01-05T01:02:35;98243.91;;;6.14;100.00
37634;BME280;32048;49.902;22.508;2023-01-05T01:05:03;98226.50;;;6.13;100.00
37634;BME280;32048;49.902;22.508;2023-01-05T01:07:31;98223.78;;;6.14;100.00
37634;BME280;32048;49.902;22.508;2023-01-05T01:09:58;98215.94;;;6.14;100.00
37634;BME280;32048;49.902;22.508;2023-01-05T01:12:25;98202.25;;;6.08;100.00
37634;BME280;32048;49.902;22.508;2023-01-05T01:14:52;98214.25;;;6.13;100.00
37634;BME280;32048;49.902;22.508;2023-01-05T01:17:19;98201.06;;;6.15;100.00
37634;BME280;32048;49.902;22.508;2023-01-05T01:19:46;98201.97;;;6.14;100.00
37634;BME280;32048;49.902;22.508;2023-01-05T01:22:13;98191.81;;;6.27;100.00
37634;BME280;32048;49.902;22.508;2023-01-05T01:24:40;98208.47;;;6.26;100.00
37634;BME280;32048;49.902;22.508;2023-01-05T01:27:08;98194.69;;;6.20;100.00
37634;BME280;32048;49.902;22.508;2023-01-05T01:29:35;98188.34;;;6.26;100.00
37634;BME280;32048;49.902;22.508;2023-01-05T01:32:02;98181.53;;;6.22;100.00
37634;BME280;32048;49.902;22.508;2023-01-05T01:34:29;98178.13;;;6.20;100.00
37634;BME280;32048;49.902;22.508;2023-01-05T01:36:57;98156.03;;;6.26;100.00
37634;BME280;32048;49.902;22.508;2023-01-05T01:39:24;98152.34;;;6.30;100.00
37634;BME280;32048;49.902;22.508;2023-01-05T01:41:52;98159.31;;;6.31;100.00
37634;BME280;32048;49.902;22.508;2023-01-05T01:45:14;98138.06;;;6.37;100.00
37634;BME280;32048;49.902;22.508;2023-01-05T01:47:39;98137.91;;;6.40;100.00
37634;BME280;32048;49.902;22.508;2023-01-05T01:52:39;98135.72;;;6.50;100.00
37634;BME280;32048;49.902;22.508;2023-01-05T01:55:07;98121.69;;;6.51;100.00
37634;BME280;32048;49.902;22.508;2023-01-05T01:57:35;98123.19;;;6.56;100.00
37634;BME280;32048;49.902;22.508;2023-01-05T02:00:05;98126.72;;;6.55;100.00
37634;BME280;32048;49.902;22.508;2023-01-05T02:02:33;98102.19;;;6.56;100.00
37634;BME280;32048;49.902;22.508;2023-01-05T02:05:04;98100.28;;;6.60;100.00
37634;BME280;32048;49.902;22.508;2023-01-05T02:07:36;98091.34;;;6.64;100.00
37634;BME280;32048;49.902;22.508;2023-01-05T02:10:03;98097.50;;;6.63;100.00
37634;BME280;32048;49.902;22.508;2023-01-05T02:12:57;98087.16;;;6.60;100.00
37634;BME280;32048;49.902;22.508;2023-01-05T02:41:30;98036.06;;;5.91;100.00
37634;BME280;32048;49.902;22.508;2023-01-05T02:43:59;98024.94;;;5.86;100.00
37634;BME280;32048;49.902;22.508;2023-01-05T02:46:28;98025.75;;;5.88;100.00
37634;BME280;32048;49.902;22.508;2023-01-05T02:48:57;98017.09;;;5.86;100.00
37634;BME280;32048;49.902;22.508;2023-01-05T02:51:38;98017.81;;;5.90;100.00
37634;BME280;32048;49.902;22.508;2023-01-05T02:54:15;98033.28;;;5.96;100.00
37634;BME280;32048;49.902;22.508;2023-01-05T02:56:52;98019.91;;;6.02;100.00
37634;BME280;32048;49.902;22.508;2023-01-05T02:59:35;98020.63;;;6.06;100.00
37634;BME280;32048;49.902;22.508;2023-01-05T03:02:08;98002.97;;;6.09;100.00
37634;BME280;32048;49.902;22.508;2023-01-05T03:04:52;97994.09;;;6.12;100.00
37634;BME280;32048;49.902;22.508;2023-01-05T03:07:25;98013.97;;;6.17;100.00
37634;BME280;32048;49.902;22.508;2023-01-05T03:09:53;98031.16;;;6.23;100.00
37634;BME280;32048;49.902;22.508;2023-01-05T03:12:27;98011.97;;;6.22;100.00
37634;BME280;32048;49.902;22.508;2023-01-05T03:17:53;97975.25;;;6.22;100.00
37634;BME280;32048;49.902;22.508;2023-01-05T03:20:23;97997.75;;;6.28;100.00
37634;BME280;32048;49.902;22.508;2023-01-05T03:22:51;97930.25;;;6.32;100.00
37634;BME280;32048;49.902;22.508;2023-01-05T03:25:38;97965.97;;;6.34;100.00
37634;BME280;32048;49.902;22.508;2023-01-05T03:28:39;97972.16;;;6.33;100.00
37634;BME280;32048;49.902;22.508;2023-01-05T03:31:39;97978.16;;;6.35;100.00
37634;BME280;32048;49.902;22.508;2023-01-05T03:34:39;97980.56;;;6.40;100.00
37634;BME280;32048;49.902;22.508;2023-01-05T03:37:39;97973.25;;;6.47;100.00
37634;BME280;32048;49.902;22.508;2023-01-05T03:40:27;97965.00;;;6.54;100.00
37634;BME280;32048;49.902;22.508;2023-01-05T03:42:54;97965.88;;;6.55;100.00
37634;BME280;32048;49.902;22.508;2023-01-05T03:45:31;97944.03;;;6.54;100.00
37634;BME280;32048;49.902;22.508;2023-01-05T03:47:59;97943.91;;;6.57;100.00
37634;BME280;32048;49.902;22.508;2023-01-05T03:50:27;97936.25;;;6.53;100.00
37634;BME280;32048;49.902;22.508;2023-01-05T03:52:54;97940.50;;;6.55;100.00
37634;BME280;32048;49.902;22.508;2023-01-05T03:55:21;97935.16;;;6.57;100.00
37634;BME280;32048;49.902;22.508;2023-01-05T03:57:48;97927.00;;;6.63;100.00
37634;BME280;32048;49.902;22.508;2023-01-05T04:00:16;97924.91;;;6.70;100.00
37634;BME280;32048;49.902;22.508;2023-01-05T04:02:43;97935.56;;;6.66;100.00
37634;BME280;32048;49.902;22.508;2023-01-05T04:05:11;97922.53;;;6.65;100.00
37634;BME280;32048;49.902;22.508;2023-01-05T04:07:38;97901.47;;;6.66;100.00
37634;BME280;32048;49.902;22.508;2023-01-05T04:10:05;97922.44;;;6.49;100.00
37634;BME280;32048;49.902;22.508;2023-01-05T04:12:32;97924.13;;;6.50;100.00
37634;BME280;32048;49.902;22.508;2023-01-05T04:14:59;97917.13;;;6.51;100.00
37634;BME280;32048;49.902;22.508;2023-01-05T04:17:26;97903.53;;;6.60;100.00
37634;BME280;32048;49.902;22.508;2023-01-05T04:19:54;97903.69;;;6.57;100.00
37634;BME280;32048;49.902;22.508;2023-01-05T04:22:20;97915.34;;;6.51;100.00
37634;BME280;32048;49.902;22.508;2023-01-05T04:24:53;97904.00;;;6.51;100.00
37634;BME280;32048;49.902;22.508;2023-01-05T04:27:20;97918.50;;;6.58;100.00
37634;BME280;32048;49.902;22.508;2023-01-05T04:29:47;97918.97;;;6.49;100.00
37634;BME280;32048;49.902;22.508;2023-01-05T04:32:14;97915.06;;;6.38;100.00
37634;BME280;32048;49.902;22.508;2023-01-05T04:34:41;97886.41;;;6.35;100.00
37634;BME280;32048;49.902;22.508;2023-01-05T04:37:08;97900.84;;;6.25;100.00
37634;BME280;32048;49.902;22.508;2023-01-05T04:39:35;97895.06;;;6.18;100.00
37634;BME280;32048;49.902;22.508;2023-01-05T04:42:02;97884.81;;;6.14;100.00
37634;BME280;32048;49.902;22.508;2023-01-05T04:44:29;97885.81;;;6.11;100.00
37634;BME280;32048;49.902;22.508;2023-01-05T04:46:56;97876.38;;;6.07;100.00
37634;BME280;32048;49.902;22.508;2023-01-05T04:49:24;97868.63;;;6.06;100.00
37634;BME280;32048;49.902;22.508;2023-01-05T04:51:51;97877.53;;;6.01;100.00
37634;BME280;32048;49.902;22.508;2023-01-05T04:54:18;97860.25;;;5.97;100.00
37634;BME280;32048;49.902;22.508;2023-01-05T04:56:45;97859.19;;;6.01;100.00
37634;BME280;32048;49.902;22.508;2023-01-05T04:59:12;97856.63;;;6.00;100.00
37634;BME280;32048;49.902;22.508;2023-01-05T05:01:39;97854.63;;;6.05;100.00
37634;BME280;32048;49.902;22.508;2023-01-05T05:04:06;97874.63;;;6.08;100.00
37634;BME280;32048;49.902;22.508;2023-01-05T05:06:33;97858.75;;;6.11;100.00
37634;BME280;32048;49.902;22.508;2023-01-05T05:09:00;97857.03;;;6.10;100.00
37634;BME280;32048;49.902;22.508;2023-01-05T05:11:27;97865.53;;;6.15;100.00
37634;BME280;32048;49.902;22.508;2023-01-05T05:13:55;97856.75;;;6.16;100.00
37634;BME280;32048;49.902;22.508;2023-01-05T05:16:22;97851.44;;;6.17;100.00
37634;BME280;32048;49.902;22.508;2023-01-05T05:18:49;97854.69;;;6.22;100.00
37634;BME280;32048;49.902;22.508;2023-01-05T05:21:16;97845.81;;;6.25;100.00
37634;BME280;32048;49.902;22.508;2023-01-05T05:23:43;97872.25;;;6.20;100.00
37634;BME280;32048;49.902;22.508;2023-01-05T05:26:10;97872.13;;;6.23;100.00
37634;BME280;32048;49.902;22.508;2023-01-05T05:28:37;97841.63;;;6.21;100.00
37634;BME280;32048;49.902;22.508;2023-01-05T05:31:04;97872.19;;;6.22;100.00
37634;BME280;32048;49.902;22.508;2023-01-05T05:33:32;97848.81;;;6.17;100.00
37634;BME280;32048;49.902;22.508;2023-01-05T05:35:59;97848.09;;;6.14;100.00
37634;BME280;32048;49.902;22.508;2023-01-05T05:38:26;97862.44;;;6.07;100.00
37634;BME280;32048;49.902;22.508;2023-01-05T05:40:53;97851.22;;;6.03;100.00
37634;BME280;32048;49.902;22.508;2023-01-05T05:43:20;97857.19;;;6.07;100.00
37634;BME280;32048;49.902;22.508;2023-01-05T05:45:47;97851.03;;;6.08;100.00
37634;BME280;32048;49.902;22.508;2023-01-05T05:48:17;97849.88;;;6.13;100.00
37634;BME280;32048;49.902;22.508;2023-01-05T05:50:44;97828.06;;;6.13;100.00
37634;BME280;32048;49.902;22.508;2023-01-05T05:53:12;97841.19;;;6.13;100.00
37634;BME280;32048;49.902;22.508;2023-01-05T05:55:39;97834.38;;;6.09;100.00
37634;BME280;32048;49.902;22.508;2023-01-05T05:58:06;97854.28;;;6.13;100.00
37634;BME280;32048;49.902;22.508;2023-01-05T06:00:33;97833.22;;;6.14;100.00
37634;BME280;32048;49.902;22.508;2023-01-05T06:03:00;97824.28;;;6.18;100.00
37634;BME280;32048;49.902;22.508;2023-01-05T06:05:27;97832.00;;;6.21;100.00
37634;BME280;32048;49.902;22.508;2023-01-05T06:07:54;97833.94;;;6.18;100.00
37634;BME280;32048;49.902;22.508;2023-01-05T06:10:22;97830.94;;;6.26;100.00
37634;BME280;32048;49.902;22.508;2023-01-05T06:12:52;97839.44;;;6.31;100.00
37634;BME280;32048;49.902;22.508;2023-01-05T06:15:19;97849.75;;;6.34;100.00
37634;BME280;32048;49.902;22.508;2023-01-05T06:17:47;97834.19;;;6.31;100.00
37634;BME280;32048;49.902;22.508;2023-01-05T06:20:15;97845.81;;;6.25;100.00
37634;BME280;32048;49.902;22.508;2023-01-05T06:22:42;97841.97;;;6.15;100.00
37634;BME280;32048;49.902;22.508;2023-01-05T06:25:10;97858.91;;;6.08;100.00
37634;BME280;32048;49.902;22.508;2023-01-05T06:27:37;97857.34;;;6.03;100.00
37634;BME280;32048;49.902;22.508;2023-01-05T06:30:05;97868.91;;;5.99;100.00
37634;BME280;32048;49.902;22.508;2023-01-05T06:32:32;97879.38;;;5.99;100.00
37634;BME280;32048;49.902;22.508;2023-01-05T06:34:59;97854.63;;;6.05;100.00
37634;BME280;32048;49.902;22.508;2023-01-05T06:37:26;97855.72;;;6.01;100.00
37634;BME280;32048;49.902;22.508;2023-01-05T06:39:53;97864.28;;;6.04;100.00
37634;BME280;32048;49.902;22.508;2023-01-05T06:42:22;97860.88;;;6.02;100.00
37634;BME280;32048;49.902;22.508;2023-01-05T06:44:49;97867.13;;;6.00;100.00
37634;BME280;32048;49.902;22.508;2023-01-05T06:47:17;97869.91;;;5.97;100.00
37634;BME280;32048;49.902;22.508;2023-01-05T06:49:44;97880.47;;;5.94;100.00
37634;BME280;32048;49.902;22.508;2023-01-05T06:52:12;97884.56;;;6.01;100.00
37634;BME280;32048;49.902;22.508;2023-01-05T06:54:42;97902.19;;;5.97;100.00
37634;BME280;32048;49.902;22.508;2023-01-05T06:57:10;97908.44;;;5.93;100.00
37634;BME280;32048;49.902;22.508;2023-01-05T06:59:37;97909.22;;;5.97;100.00
37634;BME280;32048;49.902;22.508;2023-01-05T07:02:05;97897.56;;;6.02;100.00
37634;BME280;32048;49.902;22.508;2023-01-05T07:04:34;97896.78;;;6.00;100.00
37634;BME280;32048;49.902;22.508;2023-01-05T07:07:02;97891.63;;;5.99;100.00
37634;BME280;32048;49.902;22.508;2023-01-05T07:09:28;97875.13;;;5.97;100.00
37634;BME280;32048;49.902;22.508;2023-01-05T07:11:56;97876.88;;;5.96;100.00
37634;BME280;32048;49.902;22.508;2023-01-05T07:14:23;97870.91;;;5.94;100.00
37634;BME280;32048;49.902;22.508;2023-01-05T07:16:50;97877.75;;;5.97;100.00
37634;BME280;32048;49.902;22.508;2023-01-05T07:19:17;97859.31;;;5.98;100.00
37634;BME280;32048;49.902;22.508;2023-01-05T07:21:44;97869.91;;;5.97;100.00
37634;BME280;32048;49.902;22.508;2023-01-05T07:24:11;97876.75;;;5.99;100.00
37634;BME280;32048;49.902;22.508;2023-01-05T07:26:38;97859.09;;;6.03;100.00
37634;BME280;32048;49.902;22.508;2023-01-05T07:29:05;97863.44;;;6.04;100.00
37634;BME280;32048;49.902;22.508;2023-01-05T07:31:33;97863.44;;;6.04;100.00
37634;BME280;32048;49.902;22.508;2023-01-05T07:34:00;97867.75;;;6.05;100.00
37634;BME280;32048;49.902;22.508;2023-01-05T07:36:27;97855.34;;;6.09;100.00
37634;BME280;32048;49.902;22.508;2023-01-05T07:38:54;97857.69;;;6.15;100.00
37634;BME280;32048;49.902;22.508;2023-01-05T07:41:25;97872.97;;;6.24;100.00
37634;BME280;32048;49.902;22.508;2023-01-05T07:43:52;97904.13;;;6.30;100.00
37634;BME280;32048;49.902;22.508;2023-01-05T07:46:19;97924.16;;;6.31;100.00
37634;BME280;32048;49.902;22.508;2023-01-05T07:48:46;97939.97;;;6.30;100.00
37634;BME280;32048;49.902;22.508;2023-01-05T07:51:14;97941.19;;;6.22;100.00
37634;BME280;32048;49.902;22.508;2023-01-05T07:53:41;97915.34;;;6.15;100.00
37634;BME280;32048;49.902;22.508;2023-01-05T07:56:11;97895.50;;;6.09;100.00
37634;BME280;32048;49.902;22.508;2023-01-05T07:58:39;97875.38;;;6.10;100.00
37634;BME280;32048;49.902;22.508;2023-01-05T08:01:09;97904.53;;;6.03;100.00
37634;BME280;32048;49.902;22.508;2023-01-05T08:03:37;97896.00;;;5.98;100.00
37634;BME280;32048;49.902;22.508;2023-01-05T08:06:10;97887.47;;;5.95;100.00
37634;BME280;32048;49.902;22.508;2023-01-05T08:08:38;97897.84;;;5.96;100.00
37634;BME280;32048;49.902;22.508;2023-01-05T08:11:07;97884.00;;;5.94;100.00
37634;BME280;32048;49.902;22.508;2023-01-05T08:13:35;97884.88;;;5.93;100.00
37634;BME280;32048;49.902;22.508;2023-01-05T08:16:21;97881.41;;;5.93;100.00
37634;BME280;32048;49.902;22.508;2023-01-05T08:18:48;97888.44;;;5.92;100.00
37634;BME280;32048;49.902;22.508;2023-01-05T08:21:17;97888.31;;;5.95;100.00
37634;BME280;32048;49.902;22.508;2023-01-05T08:23:44;97896.16;;;5.95;100.00
37634;BME280;32048;49.902;22.508;2023-01-05T08:26:18;97896.09;;;5.97;100.00
37634;BME280;32048;49.902;22.508;2023-01-05T08:28:45;97894.94;;;6.02;100.00
37634;BME280;32048;49.902;22.508;2023-01-05T08:31:14;97893.81;;;6.08;100.00
37634;BME280;32048;49.902;22.508;2023-01-05T08:33:42;97886.63;;;6.12;100.00
37634;BME280;32048;49.902;22.508;2023-01-05T08:36:14;97896.69;;;6.21;100.00
37634;BME280;32048;49.902;22.508;2023-01-05T08:38:42;97898.19;;;6.27;100.00
37634;BME280;32048;49.902;22.508;2023-01-05T08:41:20;97903.13;;;6.33;100.00
37634;BME280;32048;49.902;22.508;2023-01-05T08:43:52;97895.81;;;6.39;100.00
37634;BME280;32048;49.902;22.508;2023-01-05T08:46:22;97892.03;;;6.45;100.00
37634;BME280;32048;49.902;22.508;2023-01-05T08:48:50;97903.00;;;6.53;100.00
37634;BME280;32048;49.902;22.508;2023-01-05T08:51:18;97905.09;;;6.64;100.00
37634;BME280;32048;49.902;22.508;2023-01-05T08:53:45;97910.19;;;6.67;100.00
37634;BME280;32048;49.902;22.508;2023-01-05T08:56:13;97912.41;;;6.75;100.00
37634;BME280;32048;49.902;22.508;2023-01-05T08:58:41;97903.56;;;6.77;100.00
37634;BME280;32048;49.902;22.508;2023-01-05T09:01:10;97918.13;;;6.83;100.00
37634;BME280;32048;49.902;22.508;2023-01-05T09:03:38;97903.16;;;6.85;100.00
37634;BME280;32048;49.902;22.508;2023-01-05T09:06:08;97897.91;;;6.85;100.00
37634;BME280;32048;49.902;22.508;2023-01-05T09:08:39;97905.63;;;6.88;100.00
37634;BME280;32048;49.902;22.508;2023-01-05T09:11:08;97900.53;;;6.85;100.00
37634;BME280;32048;49.902;22.508;2023-01-05T09:13:38;97920.75;;;6.83;100.00
37634;BME280;32048;49.902;22.508;2023-01-05T09:16:08;97904.94;;;6.84;100.00
37634;BME280;32048;49.902;22.508;2023-01-05T09:18:37;97901.47;;;6.84;100.00
37634;BME280;32048;49.902;22.508;2023-01-05T09:21:05;97894.81;;;6.77;100.00
37634;BME280;32048;49.902;22.508;2023-01-05T09:23:33;97894.81;;;6.77;100.00
37634;BME280;32048;49.902;22.508;2023-01-05T09:26:03;97903.63;;;6.76;100.00
37634;BME280;32048;49.902;22.508;2023-01-05T09:28:30;97899.22;;;6.76;100.00
37634;BME280;32048;49.902;22.508;2023-01-05T09:30:58;97890.50;;;6.76;100.00
37634;BME280;32048;49.902;22.508;2023-01-05T09:33:25;97901.91;;;6.75;100.00
37634;BME280;32048;49.902;22.508;2023-01-05T09:35:55;97899.28;;;6.75;100.00
37634;BME280;32048;49.902;22.508;2023-01-05T09:38:23;97909.88;;;6.73;100.00
37634;BME280;32048;49.902;22.508;2023-01-05T09:40:53;97902.78;;;6.75;100.00
37634;BME280;32048;49.902;22.508;2023-01-05T09:43:28;97901.47;;;6.84;100.00
37634;BME280;32048;49.902;22.508;2023-01-05T09:45:57;97897.75;;;6.88;100.00
37634;BME280;32048;49.902;22.508;2023-01-05T09:48:25;97899.06;;;6.97;100.00
37634;BME280;32048;49.902;22.508;2023-01-05T09:50:53;97896.97;;;7.03;100.00
37634;BME280;32048;49.902;22.508;2023-01-05T09:53:26;97883.47;;;7.11;100.00
37634;BME280;32048;49.902;22.508;2023-01-05T09:55:56;97878.25;;;7.27;100.00
37634;BME280;32048;49.902;22.508;2023-01-05T09:58:26;97878.38;;;7.57;100.00
37634;BME280;32048;49.902;22.508;2023-01-05T10:01:12;97879.78;;;7.96;100.00
37634;BME280;32048;49.902;22.508;2023-01-05T10:03:53;97881.19;;;8.18;100.00
37634;BME280;32048;49.902;22.508;2023-01-05T10:06:38;97880.03;;;8.23;100.00
37634;BME280;32048;49.902;22.508;2023-01-05T10:09:14;97878.91;;;8.11;100.00
37634;BME280;32048;49.902;22.508;2023-01-05T10:14:37;97868.66;;;7.91;100.00
37634;BME280;32048;49.902;22.508;2023-01-05T10:17:17;97864.84;;;7.81;100.00
37634;BME280;32048;49.902;22.508;2023-01-05T10:23:03;97865.94;;;7.77;100.00
37634;BME280;32048;49.902;22.508;2023-01-05T10:25:51;97864.94;;;7.79;100.00
37634;BME280;32048;49.902;22.508;2023-01-05T10:30:59;97856.97;;;7.81;100.00
37634;BME280;32048;49.902;22.508;2023-01-05T10:33:47;97867.47;;;7.81;100.00
37634;BME280;32048;49.902;22.508;2023-01-05T10:39:52;97854.34;;;7.81;100.00
37634;BME280;32048;49.902;22.508;2023-01-05T10:45:01;97872.38;;;7.71;100.00
37634;BME280;32048;49.902;22.508;2023-01-05T10:47:34;97871.28;;;7.75;100.00
37634;BME280;32048;49.902;22.508;2023-01-05T10:50:20;97865.44;;;7.70;100.00
37634;BME280;32048;49.902;22.508;2023-01-05T10:52:52;97866.28;;;7.70;100.00
37634;BME280;32048;49.902;22.508;2023-01-05T10:55:20;97875.00;;;7.71;100.00
37634;BME280;32048;49.902;22.508;2023-01-05T10:57:48;97868.13;;;7.68;100.00
37634;BME280;32048;49.902;22.508;2023-01-05T11:00:18;97869.16;;;7.66;100.00
37634;BME280;32048;49.902;22.508;2023-01-05T11:02:49;97859.66;;;7.63;100.00
37634;BME280;32048;49.902;22.508;2023-01-05T11:07:55;97837.69;;;7.64;100.00
37634;BME280;32048;49.902;22.508;2023-01-05T11:10:33;97834.09;;;7.67;100.00
37634;BME280;32048;49.902;22.508;2023-01-05T11:15:30;97837.19;;;8.21;100.00
37634;BME280;32048;49.902;22.508;2023-01-05T11:17:58;97835.13;;;8.72;100.00
37634;BME280;32048;49.902;22.508;2023-01-05T11:20:27;97844.84;;;9.58;100.00
37634;BME280;32048;49.902;22.508;2023-01-05T11:22:54;97840.88;;;10.07;100.00
37634;BME280;32048;49.902;22.508;2023-01-05T11:25:30;97841.66;;;10.49;99.95
37634;BME280;32048;49.902;22.508;2023-01-05T11:28:15;97847.53;;;10.12;100.00
37634;BME280;32048;49.902;22.508;2023-01-05T11:31:00;97835.31;;;9.70;100.00
37634;BME280;32048;49.902;22.508;2023-01-05T11:33:31;97835.81;;;9.48;100.00
37634;BME280;32048;49.902;22.508;2023-01-05T11:36:01;97839.22;;;9.35;100.00
37634;BME280;32048;49.902;22.508;2023-01-05T11:38:30;97851.25;;;9.25;100.00
37634;BME280;32048;49.902;22.508;2023-01-05T11:40:59;97830.81;;;9.14;100.00
37634;BME280;32048;49.902;22.508;2023-01-05T11:43:29;97842.03;;;9.04;100.00
37634;BME280;32048;49.902;22.508;2023-01-05T11:46:01;97847.75;;;8.96;100.00
37634;BME280;32048;49.902;22.508;2023-01-05T11:48:31;97846.50;;;8.87;100.00
37634;BME280;32048;49.902;22.508;2023-01-05T11:51:00;97835.06;;;8.88;100.00
37634;BME280;32048;49.902;22.508;2023-01-05T11:58:41;97844.28;;;8.65;100.00
37634;BME280;32048;49.902;22.508;2023-01-05T12:10:11;97844.94;;;8.55;100.00
37634;BME280;32048;49.902;22.508;2023-01-05T12:15:32;97852.16;;;8.51;100.00
37634;BME280;32048;49.902;22.508;2023-01-05T12:18:18;97844.00;;;8.56;100.00
37634;BME280;32048;49.902;22.508;2023-01-05T12:20:56;97854.44;;;8.57;100.00
37634;BME280;32048;49.902;22.508;2023-01-05T12:29:01;97817.97;;;8.65;100.00
37634;BME280;32048;49.902;22.508;2023-01-05T12:35:26;97816.78;;;8.85;100.00
37634;BME280;32048;49.902;22.508;2023-01-05T12:48:46;97830.06;;;8.98;100.00
37634;BME280;32048;49.902;22.508;2023-01-05T12:51:21;97827.22;;;9.01;100.00
37634;BME280;32048;49.902;22.508;2023-01-05T12:54:01;97834.28;;;9.01;100.00
37634;BME280;32048;49.902;22.508;2023-01-05T12:56:44;97838.31;;;8.92;100.00
37634;BME280;32048;49.902;22.508;2023-01-05T12:59:39;97833.72;;;8.81;100.00
37634;BME280;32048;49.902;22.508;2023-01-05T13:02:31;97819.88;;;8.78;100.00
37634;BME280;32048;49.902;22.508;2023-01-05T13:13:39;97839.69;;;8.55;100.00
37634;BME280;32048;49.902;22.508;2023-01-05T13:18:38;97832.81;;;8.52;100.00
37634;BME280;32048;49.902;22.508;2023-01-05T13:21:07;97866.00;;;8.55;100.00
37634;BME280;32048;49.902;22.508;2023-01-05T13:23:44;97839.06;;;8.49;100.00
37634;BME280;32048;49.902;22.508;2023-01-05T13:26:15;97852.09;;;8.37;100.00
37634;BME280;32048;49.902;22.508;2023-01-05T13:28:53;97841.34;;;8.25;100.00
37634;BME280;32048;49.902;22.508;2023-01-05T13:40:26;97870.94;;;7.81;100.00
37634;BME280;32048;49.902;22.508;2023-01-05T13:43:16;97873.84;;;7.77;100.00
37634;BME280;32048;49.902;22.508;2023-01-05T13:51:53;97900.38;;;7.39;100.00
37634;BME280;32048;49.902;22.508;2023-01-05T13:56:53;97880.19;;;7.23;100.00
37634;BME280;32048;49.902;22.508;2023-01-05T13:59:31;97894.31;;;7.21;100.00
37634;BME280;32048;49.902;22.508;2023-01-05T14:02:32;97883.28;;;7.14;100.00
37634;BME280;32048;49.902;22.508;2023-01-05T14:05:00;97873.34;;;7.03;100.00
37634;BME280;32048;49.902;22.508;2023-01-05T14:07:28;97889.50;;;6.96;100.00
37634;BME280;32048;49.902;22.508;2023-01-05T14:09:56;97892.59;;;6.86;100.00
37634;BME280;32048;49.902;22.508;2023-01-05T14:12:42;97889.56;;;6.77;100.00
37634;BME280;32048;49.902;22.508;2023-01-05T14:17:56;97876.91;;;6.68;100.00
37634;BME280;32048;49.902;22.508;2023-01-05T14:23:03;97887.81;;;6.60;100.00
37634;BME280;32048;49.902;22.508;2023-01-05T14:28:17;97895.19;;;6.52;100.00
37634;BME280;32048;49.902;22.508;2023-01-05T14:30:46;97893.88;;;6.43;100.00
37634;BME280;32048;49.902;22.508;2023-01-05T14:33:17;97899.44;;;6.37;100.00
37634;BME280;32048;49.902;22.508;2023-01-05T14:35:45;97896.31;;;6.29;100.00
37634;BME280;32048;49.902;22.508;2023-01-05T14:38:17;97893.94;;;6.24;100.00
37634;BME280;32048;49.902;22.508;2023-01-05T14:40:47;97890.47;;;6.23;100.00
37634;BME280;32048;49.902;22.508;2023-01-05T14:48:32;97894.09;;;6.02;100.00
37634;BME280;32048;49.902;22.508;2023-01-05T14:51:17;97889.88;;;5.99;100.00
37634;BME280;32048;49.902;22.508;2023-01-05T14:53:50;97900.59;;;5.93;100.00
37634;BME280;32048;49.902;22.508;2023-01-05T14:56:27;97890.09;;;5.95;100.00
37634;BME280;32048;49.902;22.508;2023-01-05T14:59:29;97897.00;;;5.96;100.00
37634;BME280;32048;49.902;22.508;2023-01-05T15:02:07;97898.50;;;6.01;100.00
37634;BME280;32048;49.902;22.508;2023-01-05T15:04:42;97887.94;;;6.03;100.00
37634;BME280;32048;49.902;22.508;2023-01-05T15:18:55;97899.13;;;6.26;100.00
37634;BME280;32048;49.902;22.508;2023-01-05T15:32:44;97917.25;;;6.30;100.00
37634;BME280;32048;49.902;22.508;2023-01-05T15:35:15;97916.31;;;6.31;100.00
37634;BME280;32048;49.902;22.508;2023-01-05T15:37:44;97912.00;;;6.30;100.00
37634;BME280;32048;49.902;22.508;2023-01-05T15:42:49;97906.31;;;6.39;100.00
37634;BME280;32048;49.902;22.508;2023-01-05T15:45:29;97908.59;;;6.45;100.00
37634;BME280;32048;49.902;22.508;2023-01-05T15:48:06;97925.75;;;6.53;100.00